createdAt,value
2022-10-30T00:01:34.780Z,13.32
2022-10-30T00:04:01.299Z,13.13
2022-10-30T00:06:34.988Z,13.36
2022-10-30T00:10:05.456Z,13.10
2022-10-30T00:12:09.977Z,13.40
2022-10-30T00:14:55.639Z,12.94
2022-10-30T00:17:32.361Z,13.03
2022-10-30T00:20:07.773Z,12.72
2022-10-30T00:22:38.928Z,12.62
2022-10-30T00:25:13.606Z,12.61
2022-10-30T00:27:42.061Z,12.49
2022-10-30T00:30:20.588Z,12.40
2022-10-30T00:32:50.448Z,12.27
2022-10-30T00:35:30.393Z,12.26
2022-10-30T00:38:01.149Z,12.13
2022-10-30T00:40:30.029Z,12.38
2022-10-30T00:43:00.488Z,12.34
2022-10-30T00:45:30.379Z,12.47
2022-10-30T00:48:05.789Z,12.75
2022-10-30T00:50:38.596Z,12.68
2022-10-30T00:53:09.164Z,12.85
2022-10-30T00:55:42.068Z,13.22
2022-10-30T00:58:14.811Z,13.48
2022-10-30T01:00:52.206Z,13.34
2022-10-30T01:03:22.541Z,13.20
2022-10-30T01:05:56.815Z,13.63
2022-10-30T01:08:25.367Z,14.05
2022-10-30T01:10:53.918Z,13.88
2022-10-30T01:13:24.616Z,13.61
2022-10-30T01:16:10.444Z,13.89
2022-10-30T01:18:48.028Z,13.54
2022-10-30T01:21:29.061Z,13.67
2022-10-30T01:24:14.523Z,13.88
2022-10-30T01:26:50.831Z,14.11
2022-10-30T01:29:31.504Z,13.88
2022-10-30T01:32:20.857Z,14.14
2022-10-30T01:35:15.174Z,13.85
2022-10-30T01:37:47.314Z,14.52
2022-10-30T01:40:21.619Z,13.86
2022-10-30T01:42:52.753Z,13.64
2022-10-30T01:45:27.475Z,13.16
2022-10-30T01:48:20.054Z,13.14
2022-10-30T01:51:01.856Z,13.07
2022-10-30T01:53:42.774Z,12.94
2022-10-30T01:56:20.336Z,12.49
2022-10-30T01:58:56.863Z,12.49
2022-10-30T02:01:26.658Z,12.25
2022-10-30T02:03:56.851Z,12.57
2022-10-30T02:06:25.502Z,12.20
2022-10-30T02:08:57.124Z,12.50
2022-10-30T02:11:27.136Z,12.22
2022-10-30T02:14:00.244Z,12.35
2022-10-30T02:16:36.724Z,12.25
2022-10-30T02:19:07.873Z,12.24
2022-10-30T02:21:41.600Z,12.17
2022-10-30T02:24:09.671Z,12.72
2022-10-30T02:26:38.439Z,12.18
2022-10-30T02:29:10.994Z,12.14
2022-10-30T02:31:39.434Z,11.49
2022-10-30T02:34:08.046Z,11.39
2022-10-30T02:36:38.003Z,11.73
2022-10-30T02:39:08.277Z,11.74
2022-10-30T02:41:41.236Z,11.58
2022-10-30T02:44:12.220Z,11.26
2022-10-30T02:46:40.500Z,11.36
2022-10-30T02:49:08.810Z,11.37
2022-10-30T02:51:38.642Z,11.48
2022-10-30T02:54:07.074Z,11.40
2022-10-30T02:56:35.404Z,11.02
2022-10-30T02:59:03.726Z,11.53
2022-10-30T03:01:32.374Z,10.94
2022-10-30T03:04:00.829Z,10.75
2022-10-30T03:06:29.441Z,10.90
2022-10-30T03:08:59.271Z,10.94
2022-10-30T03:11:27.858Z,10.91
2022-10-30T03:13:56.710Z,10.82
2022-10-30T03:16:29.607Z,10.90
2022-10-30T03:18:58.977Z,11.20
2022-10-30T03:21:28.956Z,10.52
2022-10-30T03:23:59.333Z,10.39
2022-10-30T03:26:28.024Z,10.52
2022-10-30T03:28:56.474Z,10.79
2022-10-30T03:31:24.781Z,10.43
2022-10-30T03:33:54.363Z,10.49
2022-10-30T03:36:23.396Z,10.76
2022-10-30T03:38:51.771Z,10.23
2022-10-30T03:41:23.300Z,10.44
2022-10-30T03:43:53.589Z,10.60
2022-10-30T03:46:21.951Z,10.10
2022-10-30T03:48:53.275Z,10.45
2022-10-30T03:51:21.956Z,10.38
2022-10-30T03:54:01.076Z,10.68
2022-10-30T03:56:33.296Z,10.49
2022-10-30T03:59:01.919Z,10.06
2022-10-30T04:01:30.640Z,10.43
2022-10-30T04:04:01.029Z,10.05
2022-10-30T04:06:29.545Z,10.37
2022-10-30T04:08:58.065Z,10.44
2022-10-30T04:11:26.910Z,9.90
2022-10-30T04:13:58.921Z,10.19
2022-10-30T04:16:27.660Z,9.84
2022-10-30T04:18:56.156Z,10.18
2022-10-30T04:21:24.774Z,10.13
2022-10-30T04:23:54.300Z,9.70
2022-10-30T04:26:27.183Z,9.88
2022-10-30T04:28:57.358Z,9.57
2022-10-30T04:31:25.924Z,9.59
2022-10-30T04:33:54.441Z,9.58
2022-10-30T04:36:24.561Z,9.47
2022-10-30T04:38:52.976Z,9.37
2022-10-30T04:41:21.318Z,9.68
2022-10-30T04:43:50.264Z,9.72
2022-10-30T04:46:20.244Z,9.80
2022-10-30T04:48:48.591Z,9.58
2022-10-30T04:51:16.930Z,9.50
2022-10-30T04:53:45.565Z,9.52
2022-10-30T04:56:14.037Z,9.62
2022-10-30T04:58:42.586Z,9.66
2022-10-30T05:01:11.052Z,9.80
2022-10-30T05:03:40.912Z,9.36
2022-10-30T05:06:17.188Z,9.49
2022-10-30T05:08:45.578Z,9.43
2022-10-30T05:11:14.104Z,9.50
2022-10-30T05:13:42.446Z,9.13
2022-10-30T05:16:10.722Z,9.32
2022-10-30T05:18:40.531Z,9.55
2022-10-30T05:21:09.694Z,9.48
2022-10-30T05:23:38.037Z,9.12
2022-10-30T05:26:06.768Z,9.37
2022-10-30T05:28:35.032Z,9.79
2022-10-30T05:31:03.323Z,9.56
2022-10-30T05:33:31.795Z,9.87
2022-10-30T05:36:02.107Z,9.79
2022-10-30T05:38:30.379Z,9.71
2022-10-30T05:40:58.580Z,9.21
2022-10-30T05:43:26.863Z,9.16
2022-10-30T05:45:55.192Z,9.18
2022-10-30T05:48:23.380Z,9.11
2022-10-30T05:50:51.666Z,9.09
2022-10-30T05:53:21.377Z,9.36
2022-10-30T05:55:49.751Z,9.43
2022-10-30T05:58:18.527Z,9.31
2022-10-30T06:00:46.890Z,9.23
2022-10-30T06:03:15.489Z,9.66
2022-10-30T06:05:47.868Z,9.48
2022-10-30T06:08:17.808Z,9.31
2022-10-30T06:10:49.025Z,9.03
2022-10-30T06:13:17.268Z,9.34
2022-10-30T06:15:47.140Z,9.03
2022-10-30T06:18:33.281Z,9.61
2022-10-30T08:01:52.719Z,11.60
2022-10-30T08:04:20.910Z,11.25
2022-10-30T08:06:48.975Z,11.29
2022-10-30T08:09:17.095Z,12.01
2022-10-30T08:11:45.224Z,11.73
2022-10-30T08:14:13.294Z,12.08
2022-10-30T08:16:41.439Z,12.17
2022-10-30T08:19:10.972Z,11.70
2022-10-30T08:21:39.294Z,11.72
2022-10-30T08:24:08.074Z,12.08
2022-10-30T08:26:36.319Z,12.22
2022-10-30T08:29:04.829Z,12.36
2022-10-30T08:31:33.072Z,12.58
2022-10-30T08:34:01.122Z,12.41
2022-10-30T08:36:30.611Z,12.36
2022-10-30T08:38:59.166Z,13.02
2022-10-30T08:41:27.219Z,12.74
2022-10-30T08:43:55.292Z,12.76
2022-10-30T08:46:23.359Z,12.85
2022-10-30T08:48:51.451Z,13.16
2022-10-30T08:51:19.510Z,13.09
2022-10-30T08:53:50.887Z,13.06
2022-10-30T08:56:19.116Z,13.73
2022-10-30T08:58:47.282Z,14.03
2022-10-30T09:01:15.447Z,13.60
2022-10-30T09:03:44.533Z,14.04
2022-10-30T09:06:12.837Z,13.66
2022-10-30T09:08:40.941Z,13.96
2022-10-30T09:11:10.428Z,14.04
2022-10-30T09:13:38.475Z,14.18
2022-10-30T09:16:07.173Z,14.41
2022-10-30T09:18:37.003Z,14.59
2022-10-30T09:21:05.572Z,14.31
2022-10-30T09:23:34.132Z,14.21
2022-10-30T09:26:02.238Z,14.48
2022-10-30T09:28:31.819Z,15.05
2022-10-30T09:30:59.977Z,14.01
2022-10-30T09:33:28.277Z,14.57
2022-10-30T09:35:56.522Z,14.10
2022-10-30T09:38:24.723Z,14.90
2022-10-30T09:41:10.610Z,14.41
2022-10-30T09:43:49.893Z,15.43
2022-10-30T09:46:35.340Z,14.59
2022-10-30T09:49:19.892Z,14.54
2022-10-30T09:52:05.134Z,15.49
2022-10-30T09:54:44.273Z,15.02
2022-10-30T09:57:22.287Z,15.15
2022-10-30T10:04:05.677Z,14.95
2022-10-30T10:06:35.619Z,15.18
2022-10-30T10:09:09.203Z,15.39
2022-10-30T10:11:41.317Z,16.13
2022-10-30T10:19:39.895Z,15.62
2022-10-30T10:22:39.901Z,15.65
2022-10-30T10:25:13.609Z,16.29
2022-10-30T10:27:50.672Z,16.19
2022-10-30T10:30:21.265Z,15.71
2022-10-30T10:33:13.377Z,15.95
2022-10-30T10:36:02.745Z,16.13
2022-10-30T10:38:49.334Z,16.17
2022-10-30T10:41:29.479Z,16.25
2022-10-30T10:44:13.926Z,16.05
2022-10-30T10:47:04.380Z,16.31
2022-10-30T10:49:54.234Z,16.80
2022-10-30T10:52:30.101Z,16.37
2022-10-30T10:55:03.855Z,16.54
2022-10-30T10:57:34.992Z,16.70
2022-10-30T11:00:05.602Z,16.61
2022-10-30T11:02:40.438Z,17.14
2022-10-30T11:05:18.991Z,16.76
2022-10-30T11:07:50.645Z,16.56
2022-10-30T11:10:21.153Z,17.49
2022-10-30T11:12:49.663Z,17.33
2022-10-30T11:15:31.703Z,17.90
2022-10-30T11:20:50.378Z,17.24
2022-10-30T11:23:41.246Z,17.26
2022-10-30T11:26:32.380Z,17.44
2022-10-30T11:29:05.638Z,17.19
2022-10-30T11:31:37.949Z,17.97
2022-10-30T11:34:34.338Z,17.50
2022-10-30T11:37:03.484Z,17.72
2022-10-30T11:39:35.446Z,17.71
2022-10-30T11:42:07.840Z,17.95
2022-10-30T11:44:39.342Z,17.82
2022-10-30T11:47:09.111Z,17.78
2022-10-30T11:49:45.013Z,17.97
2022-10-30T11:52:15.277Z,18.04
2022-10-30T11:54:48.463Z,18.26
2022-10-30T11:57:23.156Z,18.24
2022-10-30T11:59:59.329Z,18.38
2022-10-30T12:02:31.622Z,18.71
2022-10-30T12:05:04.174Z,18.42
2022-10-30T12:07:33.653Z,18.60
2022-10-30T12:10:04.684Z,19.15
2022-10-30T12:12:37.125Z,19.25
2022-10-30T12:15:20.151Z,18.69
2022-10-30T12:17:53.768Z,18.56
2022-10-30T12:20:22.155Z,18.99
2022-10-30T12:22:50.934Z,18.58
2022-10-30T12:25:25.818Z,18.80
2022-10-30T12:28:01.301Z,18.80
2022-10-30T12:30:32.559Z,19.03
2022-10-30T12:33:05.849Z,18.83
2022-10-30T12:35:42.354Z,20.12
2022-10-30T12:38:17.207Z,20.50
2022-10-30T12:40:58.294Z,20.45
2022-10-30T12:43:28.712Z,20.50
2022-10-30T12:46:08.260Z,19.94
2022-10-30T12:48:42.921Z,19.83
2022-10-30T12:51:21.289Z,19.68
2022-10-30T12:53:59.436Z,19.54
2022-10-30T12:56:34.811Z,19.44
2022-10-30T12:59:23.025Z,19.60
2022-10-30T13:01:57.904Z,19.54
2022-10-30T13:04:30.502Z,19.58
2022-10-30T13:07:06.336Z,19.55
2022-10-30T13:09:39.345Z,19.50
2022-10-30T13:12:14.045Z,20.62
2022-10-30T13:14:46.769Z,20.42
2022-10-30T13:17:15.981Z,20.67
2022-10-30T13:19:47.054Z,20.79
2022-10-30T13:22:21.656Z,20.72
2022-10-30T13:25:03.581Z,20.95
2022-10-30T13:27:42.986Z,20.92
2022-10-30T13:30:16.049Z,20.95
2022-10-30T13:33:01.374Z,21.05
2022-10-30T13:35:37.283Z,21.24
2022-10-30T13:38:22.491Z,21.08
2022-10-30T13:40:57.982Z,21.34
2022-10-30T13:43:41.733Z,21.11
2022-10-30T13:46:32.527Z,21.08
2022-10-30T13:49:12.119Z,21.13
2022-10-30T13:51:44.432Z,21.09
2022-10-30T13:54:20.866Z,21.32
2022-10-30T13:56:50.620Z,21.34
2022-10-30T13:59:34.286Z,21.27
2022-10-30T14:02:10.293Z,21.51
2022-10-30T14:04:44.806Z,21.20
2022-10-30T14:07:29.039Z,21.65
2022-10-30T14:10:04.435Z,21.50
2022-10-30T14:12:47.624Z,21.61
2022-10-30T14:15:42.098Z,21.29
2022-10-30T14:18:31.553Z,21.22
2022-10-30T14:21:12.451Z,21.35
2022-10-30T14:23:41.170Z,21.43
2022-10-30T14:26:30.716Z,21.13
2022-10-30T14:28:59.352Z,21.40
2022-10-30T14:31:39.037Z,21.34
2022-10-30T14:34:47.286Z,21.13
2022-10-30T14:37:15.531Z,20.65
2022-10-30T14:39:45.259Z,21.11
2022-10-30T14:42:20.509Z,20.73
2022-10-30T14:45:01.009Z,20.85
2022-10-30T14:47:46.277Z,20.74
2022-10-30T14:50:24.484Z,20.91
2022-10-30T14:53:18.009Z,20.89
2022-10-30T14:55:56.014Z,20.74
2022-10-30T14:58:27.532Z,20.38
2022-10-30T15:01:25.928Z,20.29
2022-10-30T15:04:07.694Z,20.31
2022-10-30T15:06:43.947Z,20.10
2022-10-30T15:09:25.326Z,20.17
2022-10-30T15:12:24.529Z,20.11
2022-10-30T15:14:58.773Z,20.06
2022-10-30T15:17:31.913Z,20.00
2022-10-30T15:20:06.372Z,20.04
2022-10-30T15:22:36.243Z,19.69
2022-10-30T15:25:05.151Z,19.71
2022-10-30T15:27:35.936Z,19.61
2022-10-30T15:30:06.189Z,19.66
2022-10-30T15:32:34.478Z,19.69
2022-10-30T15:35:06.362Z,19.24
2022-10-30T15:37:34.885Z,19.44
2022-10-30T15:40:27.513Z,19.02
2022-10-30T15:42:57.644Z,19.26
2022-10-30T15:45:31.444Z,18.88
2022-10-30T15:48:00.984Z,19.02
2022-10-30T15:50:31.906Z,18.47
2022-10-30T15:53:01.010Z,18.49
2022-10-30T15:55:32.684Z,18.53
2022-10-30T15:58:05.133Z,17.96
2022-10-30T16:00:36.550Z,18.00
2022-10-30T16:03:07.429Z,17.87
2022-10-30T16:05:37.668Z,17.57
2022-10-30T16:08:15.549Z,17.40
2022-10-30T16:10:46.029Z,17.13
2022-10-30T16:13:19.270Z,16.91
2022-10-30T16:15:48.354Z,17.25
2022-10-30T16:18:21.298Z,17.03
2022-10-30T16:20:53.559Z,17.22
2022-10-30T16:23:22.652Z,16.97
2022-10-30T16:25:56.429Z,16.85
2022-10-30T16:28:26.936Z,16.74
2022-10-30T16:30:55.634Z,16.92
2022-10-30T16:33:27.320Z,16.79
2022-10-30T16:35:57.757Z,16.30
2022-10-30T16:38:30.265Z,15.68
2022-10-30T16:40:59.341Z,16.07
2022-10-30T16:43:30.266Z,16.00
2022-10-30T16:46:14.078Z,15.94
2022-10-30T16:48:45.610Z,16.07
2022-10-30T16:51:17.909Z,15.79
2022-10-30T16:53:48.804Z,15.71
2022-10-30T16:56:23.557Z,15.52
2022-10-30T16:58:52.915Z,15.29
2022-10-30T17:01:26.421Z,15.60
2022-10-30T17:03:55.475Z,16.03
2022-10-30T17:06:30.392Z,15.44
2022-10-30T17:09:00.702Z,15.46
2022-10-30T17:11:37.803Z,15.19
2022-10-30T17:14:17.345Z,15.64
2022-10-30T17:16:54.374Z,15.27
2022-10-30T17:19:46.620Z,15.37
2022-10-30T17:22:20.815Z,15.54
2022-10-30T17:24:50.048Z,14.90
2022-10-30T17:27:30.713Z,15.12
2022-10-30T17:29:59.139Z,14.66
2022-10-30T17:32:28.828Z,14.77
2022-10-30T17:35:00.929Z,14.86
2022-10-30T17:37:31.147Z,14.73
2022-10-30T17:39:59.398Z,14.77
2022-10-30T17:42:27.656Z,14.85
2022-10-30T17:44:55.996Z,14.80
2022-10-30T17:47:24.435Z,14.92
2022-10-30T17:49:52.714Z,14.86
2022-10-30T17:52:21.832Z,15.02
2022-10-30T17:54:52.017Z,14.69
2022-10-30T17:57:20.360Z,14.55
2022-10-30T17:59:48.686Z,14.65
2022-10-30T18:02:19.213Z,14.65
2022-10-30T18:04:49.028Z,14.67
2022-10-30T18:07:18.558Z,14.23
2022-10-30T18:09:46.841Z,14.38
2022-10-30T18:12:19.436Z,14.62
2022-10-30T18:14:47.695Z,14.56
2022-10-30T18:17:15.950Z,14.58
2022-10-30T18:19:44.244Z,14.12
2022-10-30T18:22:12.540Z,14.21
2022-10-30T18:24:40.811Z,14.04
2022-10-30T18:27:09.119Z,14.25
2022-10-30T18:29:39.750Z,14.39
2022-10-30T18:32:10.189Z,14.37
2022-10-30T18:34:38.616Z,14.19
2022-10-30T18:37:06.899Z,14.42
2022-10-30T18:42:03.760Z,14.10
2022-10-30T18:44:32.075Z,14.34
2022-10-30T18:47:03.364Z,14.69
2022-10-30T18:49:33.654Z,14.33
2022-10-30T18:52:01.909Z,14.16
2022-10-30T18:54:30.212Z,14.09
2022-10-30T18:56:58.406Z,14.40
2022-10-30T18:59:26.767Z,14.22
2022-10-30T19:01:55.260Z,14.34
2022-10-30T19:04:27.262Z,14.47
2022-10-30T19:06:55.727Z,13.96
2022-10-30T19:09:24.172Z,14.29
2022-10-30T19:11:53.116Z,13.96
2022-10-30T19:14:21.762Z,14.21
2022-10-30T19:16:50.862Z,14.20
2022-10-30T19:19:19.283Z,14.22
2022-10-30T19:21:48.912Z,14.09
2022-10-30T19:24:18.088Z,13.98
2022-10-30T19:26:46.314Z,13.80
2022-10-30T19:29:16.455Z,13.97
2022-10-30T19:31:53.883Z,13.76
2022-10-30T19:35:05.107Z,14.13
2022-10-30T19:39:07.588Z,13.94
2022-10-30T19:44:58.322Z,14.02
2022-10-30T19:47:26.549Z,13.68
2022-10-30T19:49:54.758Z,13.34
2022-10-30T19:55:23.199Z,12.95
2022-10-30T19:57:51.491Z,13.57
2022-10-30T20:00:24.461Z,13.27
2022-10-30T20:02:53.689Z,13.46
2022-10-30T20:05:23.524Z,13.50
2022-10-30T20:08:01.608Z,13.07
2022-10-30T20:10:32.224Z,13.29
2022-10-30T20:13:56.082Z,13.38
2022-10-30T20:16:51.177Z,13.36
2022-10-30T20:19:48.581Z,13.53
2022-10-30T20:25:03.150Z,13.42
2022-10-30T20:27:31.293Z,13.37
2022-10-30T20:36:01.902Z,13.04
2022-10-30T20:38:33.218Z,13.39
2022-10-30T20:41:02.609Z,13.43
2022-10-30T20:43:33.191Z,13.54
2022-10-30T20:46:02.782Z,13.25
2022-10-30T20:48:31.744Z,13.42
2022-10-30T20:54:06.234Z,13.36
2022-10-30T20:56:42.121Z,13.04
2022-10-30T20:59:10.261Z,13.22
2022-10-30T21:01:42.479Z,13.63
2022-10-30T21:04:12.397Z,13.20
2022-10-30T21:06:43.557Z,13.26
2022-10-30T21:09:11.935Z,13.10
2022-10-30T21:11:40.638Z,13.10
2022-10-30T21:14:09.024Z,13.38
2022-10-30T21:16:37.222Z,13.22
2022-10-30T21:19:05.767Z,13.07
2022-10-30T21:21:33.857Z,13.06
2022-10-30T21:24:03.869Z,12.75
2022-10-30T21:26:32.172Z,12.87
2022-10-30T21:29:00.435Z,12.87
2022-10-30T21:31:28.892Z,13.20
2022-10-30T21:33:57.507Z,12.94
2022-10-30T21:36:25.764Z,12.78
2022-10-30T21:38:54.707Z,12.92
2022-10-30T21:41:32.921Z,13.14
2022-10-30T21:44:02.164Z,12.86
2022-10-30T21:46:32.614Z,12.80
2022-10-30T21:49:06.430Z,13.30
2022-10-30T21:51:35.157Z,13.10
2022-10-30T21:54:03.746Z,12.78
2022-10-30T21:56:33.341Z,12.90
2022-10-30T21:59:04.923Z,12.92
2022-10-30T22:01:34.740Z,13.29
2022-10-30T22:04:04.138Z,13.20
2022-10-30T22:06:51.251Z,13.32
2022-10-30T22:09:21.315Z,13.03
2022-10-30T22:11:50.741Z,12.87
2022-10-30T22:14:18.831Z,13.01
2022-10-30T22:16:47.097Z,12.80
2022-10-30T22:19:15.132Z,12.69
2022-10-30T22:21:43.163Z,12.63
2022-10-30T22:24:13.158Z,12.43
2022-10-30T22:26:41.182Z,12.46
2022-10-30T22:29:10.731Z,12.51
2022-10-30T22:31:40.128Z,12.54
2022-10-30T22:34:08.929Z,12.43
2022-10-30T22:36:37.460Z,12.07
2022-10-30T22:39:10.588Z,11.97
2022-10-30T22:41:38.813Z,12.30
2022-10-30T22:44:09.043Z,12.13
2022-10-30T22:46:42.226Z,12.11
2022-10-30T22:49:10.460Z,11.94
2022-10-30T22:51:40.227Z,11.73
2022-10-30T22:54:11.310Z,11.91
2022-10-30T22:56:40.229Z,12.03
2022-10-30T22:59:11.637Z,11.67
2022-10-30T23:01:42.167Z,11.96
2022-10-30T23:04:14.198Z,11.82
2022-10-30T23:06:42.667Z,11.60
2022-10-30T23:09:16.685Z,11.55
2022-10-30T23:11:44.668Z,11.58
2022-10-30T23:14:13.152Z,11.57
2022-10-30T23:16:43.211Z,11.46
2022-10-30T23:19:12.142Z,11.54
2022-10-30T23:21:40.298Z,11.41
2022-10-30T23:24:09.125Z,11.50
2022-10-30T23:26:37.212Z,11.45
2022-10-30T23:29:06.120Z,11.59
2022-10-30T23:31:37.454Z,11.32
2022-10-30T23:34:09.390Z,11.36
2022-10-30T23:36:38.035Z,11.21
2022-10-30T23:39:08.927Z,11.11
2022-10-30T23:41:37.846Z,11.18
2022-10-30T23:44:08.090Z,11.21
2022-10-30T23:46:36.915Z,10.76
2022-10-30T23:49:07.669Z,11.17
2022-10-30T23:51:36.223Z,11.13
2022-10-30T23:54:05.602Z,11.11
2022-10-30T23:56:34.013Z,10.92
2022-10-30T23:59:02.282Z,10.86
